createdAt,value
2019-02-11T00:01:21.810Z,0.70
2019-02-11T00:03:59.804Z,0.80
2019-02-11T00:06:29.856Z,0.93
2019-02-11T00:09:03.592Z,0.80
2019-02-11T00:11:40.901Z,0.87
2019-02-11T00:14:14.450Z,0.80
2019-02-11T00:16:47.335Z,0.90
2019-02-11T00:19:19.445Z,0.80
2019-02-11T00:21:51.486Z,0.80
2019-02-11T00:24:23.414Z,1.00
2019-02-11T00:26:57.942Z,0.83
2019-02-11T00:29:31.523Z,0.90
2019-02-11T00:32:03.721Z,0.80
2019-02-11T00:34:37.234Z,1.00
2019-02-11T00:37:09.501Z,0.90
2019-02-11T00:39:44.219Z,1.10
2019-02-11T00:42:17.471Z,0.87
2019-02-11T00:44:50.709Z,1.23
2019-02-11T00:47:22.620Z,1.43
2019-02-11T00:49:54.612Z,1.57
2019-02-11T00:52:28.146Z,1.20
2019-02-11T00:55:00.197Z,1.87
2019-02-11T00:57:32.177Z,1.10
2019-02-11T01:00:04.511Z,1.20
2019-02-11T01:02:36.646Z,2.60
2019-02-11T01:05:09.057Z,1.50
2019-02-11T01:07:42.357Z,1.63
2019-02-11T01:10:14.484Z,1.30
2019-02-11T01:12:46.742Z,1.70
2019-02-11T01:15:18.618Z,1.53
2019-02-11T01:17:51.482Z,1.50
2019-02-11T01:20:23.968Z,1.50
2019-02-11T01:22:56.062Z,1.77
2019-02-11T01:25:28.219Z,1.97
2019-02-11T01:28:00.598Z,1.87
2019-02-11T01:30:32.722Z,1.57
2019-02-11T01:33:06.167Z,1.90
2019-02-11T01:35:38.038Z,1.70
2019-02-11T01:38:11.248Z,1.60
2019-02-11T01:40:43.176Z,1.50
2019-02-11T01:43:16.518Z,1.37
2019-02-11T01:45:48.655Z,1.50
2019-02-11T01:48:21.918Z,1.20
2019-02-11T01:50:54.913Z,1.37
2019-02-11T01:53:26.723Z,1.20
2019-02-11T01:56:01.138Z,1.50
2019-02-11T01:58:34.501Z,1.63
2019-02-11T02:01:06.811Z,2.13
2019-02-11T02:03:41.257Z,1.70
2019-02-11T02:06:13.191Z,1.50
2019-02-11T02:08:46.636Z,1.30
2019-02-11T02:11:20.868Z,1.40
2019-02-11T02:13:53.068Z,1.73
2019-02-11T02:16:25.199Z,1.30
2019-02-11T02:18:57.594Z,1.50
2019-02-11T02:21:29.756Z,1.73
2019-02-11T02:24:03.033Z,1.73
2019-02-11T02:26:35.146Z,1.40
2019-02-11T02:29:08.632Z,1.77
2019-02-11T02:31:40.553Z,1.90
2019-02-11T02:34:13.827Z,2.37
2019-02-11T02:36:45.997Z,1.50
2019-02-11T02:39:18.026Z,1.60
2019-02-11T02:41:50.043Z,2.63
2019-02-11T02:44:23.935Z,2.40
2019-02-11T02:46:55.870Z,2.23
2019-02-11T02:49:27.860Z,2.67
2019-02-11T02:52:01.095Z,2.90
2019-02-11T02:54:32.983Z,1.83
2019-02-11T02:57:07.636Z,2.53
2019-02-11T02:59:39.775Z,5.17
2019-02-11T03:02:13.729Z,4.27
2019-02-11T03:04:49.203Z,2.40
2019-02-11T03:07:23.504Z,3.60
2019-02-11T03:09:56.310Z,2.27
2019-02-11T03:12:29.601Z,2.47
2019-02-11T03:15:01.846Z,2.77
2019-02-11T03:17:34.242Z,2.90
2019-02-11T03:20:06.793Z,2.50
2019-02-11T03:22:40.173Z,2.57
2019-02-11T03:25:12.237Z,3.07
2019-02-11T03:27:47.046Z,2.60
2019-02-11T03:30:19.236Z,2.37
2019-02-11T03:32:53.019Z,3.70
2019-02-11T03:35:24.868Z,3.47
2019-02-11T03:37:59.247Z,2.80
2019-02-11T03:40:31.893Z,2.83
2019-02-11T03:43:06.805Z,3.03
2019-02-11T03:45:41.704Z,3.43
2019-02-11T03:48:14.516Z,3.17
2019-02-11T03:50:46.905Z,2.80
2019-02-11T03:53:19.300Z,3.20
2019-02-11T03:55:52.823Z,3.97
2019-02-11T03:58:26.216Z,3.47
2019-02-11T04:00:58.390Z,2.53
2019-02-11T04:03:31.726Z,2.80
2019-02-11T04:06:05.048Z,2.23
2019-02-11T04:08:37.209Z,2.70
2019-02-11T04:11:09.791Z,3.13
2019-02-11T04:13:42.112Z,4.10
2019-02-11T04:16:15.363Z,3.03
2019-02-11T04:18:47.753Z,3.60
2019-02-11T04:21:21.725Z,2.33
2019-02-11T04:23:54.711Z,2.97
2019-02-11T04:26:27.741Z,2.27
2019-02-11T04:29:01.376Z,3.80
2019-02-11T04:31:33.703Z,3.00
2019-02-11T04:34:05.777Z,3.17
2019-02-11T04:36:39.411Z,2.70
2019-02-11T04:39:11.737Z,1.40
2019-02-11T04:41:43.969Z,1.60
2019-02-11T04:44:17.170Z,1.70
2019-02-11T04:46:50.492Z,2.00
2019-02-11T04:49:22.569Z,1.43
2019-02-11T04:51:58.814Z,1.40
2019-02-11T04:54:30.870Z,2.10
2019-02-11T04:57:03.189Z,1.33
2019-02-11T04:59:35.360Z,1.50
2019-02-11T05:02:08.734Z,1.50
2019-02-11T05:04:43.194Z,1.60
2019-02-11T05:07:15.376Z,1.60
2019-02-11T05:09:48.707Z,1.30
2019-02-11T05:12:22.119Z,1.33
2019-02-11T05:14:54.193Z,1.67
2019-02-11T05:17:26.349Z,1.40
2019-02-11T05:19:59.352Z,1.43
2019-02-11T05:22:32.764Z,1.40
2019-02-11T05:25:04.765Z,1.43
2019-02-11T05:27:36.906Z,2.10
2019-02-11T05:30:09.826Z,1.80
2019-02-11T05:32:43.295Z,1.77
2019-02-11T05:35:15.441Z,2.50
2019-02-11T05:37:48.589Z,1.30
2019-02-11T05:40:21.012Z,4.50
2019-02-11T05:42:54.538Z,1.40
2019-02-11T05:45:26.640Z,1.60
2019-02-11T05:47:59.093Z,1.50
2019-02-11T05:50:30.778Z,1.57
2019-02-11T05:53:02.726Z,1.70
2019-02-11T05:55:34.541Z,1.93
2019-02-11T05:58:08.240Z,1.60
2019-02-11T06:00:40.136Z,1.90
2019-02-11T06:03:23.979Z,2.13
2019-02-11T06:05:55.913Z,1.60
2019-02-11T06:08:27.829Z,2.53
2019-02-11T06:10:59.714Z,2.00
2019-02-11T06:13:31.602Z,2.50
2019-02-11T06:16:03.448Z,2.20
2019-02-11T06:18:35.317Z,2.40
2019-02-11T06:21:07.202Z,2.80
2019-02-11T06:23:39.127Z,2.20
2019-02-11T06:26:11.608Z,2.87
2019-02-11T06:28:43.412Z,1.97
2019-02-11T06:31:15.455Z,2.57
2019-02-11T06:34:06.956Z,3.37
2019-02-11T06:36:38.786Z,2.50
2019-02-11T06:39:10.683Z,3.27
2019-02-11T06:41:46.306Z,3.77
2019-02-11T06:44:18.252Z,4.53
2019-02-11T06:46:53.728Z,6.60
2019-02-11T06:49:25.603Z,4.30
2019-02-11T06:51:57.428Z,4.87
2019-02-11T06:54:29.310Z,4.10
2019-02-11T06:57:01.203Z,3.57
2019-02-11T06:59:33.100Z,4.73
2019-02-11T07:02:05.014Z,4.00
2019-02-11T07:04:36.824Z,5.57
2019-02-11T07:07:08.702Z,3.40
2019-02-11T07:09:40.483Z,4.30
2019-02-11T07:12:12.372Z,7.03
2019-02-11T07:14:44.223Z,5.77
2019-02-11T07:17:16.108Z,4.00
2019-02-11T07:19:48.006Z,6.87
2019-02-11T07:22:19.807Z,2.80
2019-02-11T07:24:51.594Z,2.77
2019-02-11T07:27:24.127Z,4.27
2019-02-11T07:29:56.056Z,2.40
2019-02-11T07:32:27.910Z,2.70
2019-02-11T07:34:59.789Z,3.23
2019-02-11T07:37:31.619Z,2.53
2019-02-11T07:40:03.513Z,2.70
2019-02-11T07:42:57.034Z,2.50
2019-02-11T07:45:46.335Z,2.83
2019-02-11T07:48:18.140Z,2.10
2019-02-11T07:50:51.002Z,3.13
2019-02-11T07:53:22.852Z,3.30
2019-02-11T07:55:54.785Z,3.60
2019-02-11T07:58:26.612Z,2.20
2019-02-11T08:00:58.508Z,2.50
2019-02-11T08:03:30.501Z,3.80
2019-02-11T08:06:02.418Z,3.07
2019-02-11T08:08:34.269Z,2.60
2019-02-11T08:11:07.257Z,2.63
2019-02-11T08:13:40.475Z,2.70
2019-02-11T08:16:12.370Z,3.30
2019-02-11T08:18:44.238Z,3.87
2019-02-11T08:21:16.454Z,4.07
2019-02-11T08:23:48.350Z,3.23
2019-02-11T08:26:20.194Z,4.40
2019-02-11T08:28:52.309Z,4.30
2019-02-11T08:31:24.203Z,5.70
2019-02-11T08:33:56.015Z,3.67
2019-02-11T08:36:27.911Z,4.23
2019-02-11T08:38:59.814Z,4.30
2019-02-11T08:41:33.000Z,3.93
2019-02-11T08:44:05.096Z,4.03
2019-02-11T08:46:37.012Z,6.63
2019-02-11T08:49:14.339Z,4.73
2019-02-11T08:51:46.246Z,4.73
2019-02-11T08:54:18.143Z,5.73
2019-02-11T08:56:49.941Z,5.70
2019-02-11T08:59:21.847Z,4.63
2019-02-11T09:01:53.723Z,3.63
2019-02-11T09:04:25.629Z,5.10
2019-02-11T09:06:57.495Z,7.03
2019-02-11T09:09:29.354Z,6.60
2019-02-11T09:12:01.146Z,5.47
2019-02-11T09:14:33.873Z,5.40
2019-02-11T09:17:10.406Z,5.63
2019-02-11T09:19:41.780Z,5.67
2019-02-11T09:22:13.681Z,4.43
2019-02-11T09:24:45.651Z,5.37
2019-02-11T09:27:17.479Z,6.87
2019-02-11T09:29:49.395Z,7.67
2019-02-11T09:32:21.230Z,5.47
2019-02-11T09:34:53.085Z,4.40
2019-02-11T09:37:24.967Z,5.47
2019-02-11T09:39:56.879Z,5.83
2019-02-11T09:42:28.700Z,3.90
2019-02-11T09:45:00.882Z,7.47
2019-02-11T09:47:34.316Z,5.57
2019-02-11T09:50:19.015Z,5.23
2019-02-11T09:52:52.486Z,4.37
2019-02-11T09:55:26.379Z,5.60
2019-02-11T09:57:58.199Z,7.80
2019-02-11T10:00:29.973Z,3.93
2019-02-11T10:03:03.210Z,5.50
2019-02-11T10:05:36.316Z,5.07
2019-02-11T10:08:08.082Z,5.13
2019-02-11T10:10:39.938Z,5.27
2019-02-11T10:13:11.754Z,4.57
2019-02-11T10:15:43.597Z,4.53
2019-02-11T10:18:16.979Z,3.33
2019-02-11T10:20:49.718Z,3.83
2019-02-11T10:23:21.594Z,5.50
2019-02-11T10:25:53.511Z,4.57
2019-02-11T10:28:25.290Z,4.13
2019-02-11T10:30:57.187Z,5.33
2019-02-11T10:33:29.107Z,4.00
2019-02-11T10:36:01.032Z,3.50
2019-02-11T10:38:36.561Z,3.30
2019-02-11T10:41:07.738Z,3.70
2019-02-11T10:43:39.645Z,5.80
2019-02-11T10:46:11.509Z,4.53
2019-02-11T10:48:43.389Z,4.37
2019-02-11T10:51:16.295Z,4.63
2019-02-11T10:53:48.180Z,3.70
2019-02-11T10:56:21.761Z,4.67
2019-02-11T10:58:53.441Z,3.33
2019-02-11T11:01:25.269Z,5.80
2019-02-11T11:03:57.091Z,4.07
2019-02-11T11:06:30.195Z,4.40
2019-02-11T11:09:04.666Z,5.13
2019-02-11T11:11:36.575Z,4.30
2019-02-11T11:14:08.446Z,3.30
2019-02-11T11:16:40.407Z,3.93
2019-02-11T11:19:12.384Z,3.70
2019-02-11T11:21:44.171Z,5.60
2019-02-11T11:24:16.016Z,5.03
2019-02-11T11:26:47.840Z,6.37
2019-02-11T11:29:19.667Z,5.30
2019-02-11T11:31:51.555Z,7.53
2019-02-11T11:34:23.444Z,6.57
2019-02-11T11:36:55.262Z,5.87
2019-02-11T11:39:28.506Z,6.17
2019-02-11T11:42:00.409Z,7.53
2019-02-11T11:44:32.953Z,5.93
2019-02-11T11:47:05.205Z,5.97
2019-02-11T11:49:36.987Z,5.60
2019-02-11T11:52:09.104Z,7.77
2019-02-11T11:54:41.008Z,5.27
2019-02-11T11:57:12.893Z,6.23
2019-02-11T11:59:44.801Z,5.57
2019-02-11T12:02:16.791Z,5.77
2019-02-11T12:04:48.622Z,3.70
2019-02-11T12:07:20.509Z,5.43
2019-02-11T12:09:52.497Z,5.33
2019-02-11T12:12:24.326Z,9.93
2019-02-11T12:14:57.356Z,5.27
2019-02-11T12:17:29.162Z,5.03
2019-02-11T12:20:01.107Z,5.67
2019-02-11T12:22:33.808Z,4.43
2019-02-11T12:25:06.631Z,6.83
2019-02-11T12:27:38.524Z,8.20
2019-02-11T12:30:13.337Z,6.30
2019-02-11T12:32:45.167Z,8.80
2019-02-11T12:35:17.057Z,7.30
2019-02-11T12:37:48.840Z,6.57
2019-02-11T12:40:20.682Z,4.33
2019-02-11T12:42:53.852Z,7.13
2019-02-11T12:45:27.483Z,8.17
2019-02-11T12:47:59.407Z,4.30
2019-02-11T12:50:31.258Z,6.97
2019-02-11T12:53:03.084Z,5.63
2019-02-11T12:55:35.952Z,5.67
2019-02-11T12:58:07.768Z,4.60
2019-02-11T13:00:50.298Z,5.40
2019-02-11T13:03:21.827Z,3.97
2019-02-11T13:05:53.658Z,3.80
2019-02-11T13:08:25.593Z,3.87
2019-02-11T13:10:57.459Z,6.80
2019-02-11T13:13:29.359Z,5.23
2019-02-11T13:16:03.527Z,5.57
2019-02-11T13:18:39.471Z,5.00
2019-02-11T13:21:09.274Z,5.40
2019-02-11T13:23:41.112Z,4.47
2019-02-11T13:26:12.899Z,4.27
2019-02-11T13:29:17.156Z,6.40
2019-02-11T13:31:49.009Z,6.00
2019-02-11T13:34:20.901Z,6.80
2019-02-11T13:36:52.821Z,3.77
2019-02-11T13:39:24.741Z,6.07
2019-02-11T13:41:56.642Z,9.37
2019-02-11T13:44:28.503Z,6.90
2019-02-11T13:47:00.313Z,6.17
2019-02-11T13:49:32.082Z,5.73
2019-02-11T13:52:03.853Z,4.00
2019-02-11T13:54:35.849Z,4.23
2019-02-11T13:57:07.836Z,5.07
2019-02-11T13:59:39.656Z,6.27
2019-02-11T14:02:11.450Z,6.33
2019-02-11T14:04:43.356Z,6.57
2019-02-11T14:07:15.235Z,3.80
2019-02-11T14:09:47.061Z,5.90
2019-02-11T14:12:19.182Z,4.60
2019-02-11T14:14:51.000Z,4.47
2019-02-11T14:17:23.050Z,8.70
2019-02-11T14:19:55.052Z,6.07
2019-02-11T14:22:27.944Z,8.10
2019-02-11T14:25:00.822Z,8.03
2019-02-11T14:27:32.734Z,5.00
2019-02-11T14:30:04.900Z,4.57
2019-02-11T14:32:36.893Z,7.03
2019-02-11T14:35:09.035Z,5.93
2019-02-11T14:37:40.979Z,3.47
2019-02-11T14:40:12.929Z,5.90
2019-02-11T14:42:44.931Z,5.07
2019-02-11T14:45:16.962Z,5.13
2019-02-11T14:47:50.070Z,6.70
2019-02-11T14:50:22.069Z,7.77
2019-02-11T14:52:54.016Z,7.80
2019-02-11T14:55:25.977Z,6.90
2019-02-11T14:57:59.225Z,5.10
2019-02-11T15:00:31.270Z,6.40
2019-02-11T15:03:03.169Z,5.93
2019-02-11T15:05:34.912Z,3.97
2019-02-11T15:08:09.554Z,11.40
2019-02-11T15:10:41.352Z,7.43
2019-02-11T15:13:13.269Z,5.27
2019-02-11T15:15:45.081Z,6.50
2019-02-11T15:18:18.038Z,4.53
2019-02-11T15:20:49.915Z,5.13
2019-02-11T15:23:21.793Z,4.80
2019-02-11T15:25:53.679Z,6.37
2019-02-11T15:28:25.594Z,3.30
2019-02-11T15:30:57.450Z,8.10
2019-02-11T15:33:29.262Z,7.23
2019-02-11T15:36:01.108Z,7.40
2019-02-11T15:38:34.054Z,5.80
2019-02-11T15:41:05.908Z,6.07
2019-02-11T15:43:39.131Z,5.70
2019-02-11T15:46:10.955Z,9.70
2019-02-11T15:48:46.525Z,4.63
2019-02-11T15:51:18.361Z,5.20
2019-02-11T15:53:50.239Z,6.63
2019-02-11T15:56:22.218Z,5.27
2019-02-11T15:58:54.070Z,6.33
2019-02-11T16:01:25.909Z,6.17
2019-02-11T16:03:59.744Z,4.53
2019-02-11T16:06:37.857Z,5.70
2019-02-11T16:09:05.637Z,5.30
2019-02-11T16:11:37.540Z,4.57
2019-02-11T16:14:09.347Z,7.07
2019-02-11T16:16:41.258Z,8.33
2019-02-11T16:19:13.187Z,7.67
2019-02-11T16:21:46.646Z,5.33
2019-02-11T16:24:18.546Z,3.70
2019-02-11T16:26:50.402Z,4.67
2019-02-11T16:29:23.630Z,4.33
2019-02-11T16:32:00.763Z,5.33
2019-02-11T16:34:31.834Z,6.80
2019-02-11T16:37:03.751Z,5.63
2019-02-11T16:39:35.547Z,7.43
2019-02-11T16:42:07.317Z,3.63
2019-02-11T16:44:39.203Z,5.87
2019-02-11T16:47:12.406Z,5.27
2019-02-11T16:49:44.246Z,5.73
2019-02-11T16:52:16.049Z,4.37
2019-02-11T16:54:47.943Z,7.47
2019-02-11T16:57:19.734Z,5.40
2019-02-11T16:59:53.180Z,6.03
2019-02-11T17:02:25.103Z,4.73
2019-02-11T17:04:57.039Z,6.20
2019-02-11T17:07:28.843Z,5.57
2019-02-11T17:10:01.751Z,4.87
2019-02-11T17:12:33.614Z,5.77
2019-02-11T17:15:06.302Z,6.07
2019-02-11T17:17:38.268Z,6.30
2019-02-11T17:20:11.474Z,5.17
2019-02-11T17:22:43.288Z,4.63
2019-02-11T17:25:15.287Z,5.00
2019-02-11T17:27:47.361Z,5.67
2019-02-11T17:30:21.579Z,5.57
2019-02-11T17:32:54.305Z,5.80
2019-02-11T17:35:26.199Z,6.07
2019-02-11T17:38:16.897Z,4.20
2019-02-11T17:40:50.910Z,2.63
2019-02-11T17:43:22.699Z,3.40
2019-02-11T17:45:54.701Z,3.63
2019-02-11T17:48:27.286Z,4.80
2019-02-11T17:51:00.520Z,4.27
2019-02-11T17:53:34.751Z,6.10
2019-02-11T17:56:06.560Z,5.67
2019-02-11T17:58:38.445Z,7.23
2019-02-11T18:01:10.384Z,6.53
2019-02-11T18:03:43.312Z,4.73
2019-02-11T18:06:16.537Z,5.07
2019-02-11T18:08:48.445Z,4.37
2019-02-11T18:11:20.355Z,4.30
2019-02-11T18:13:52.225Z,4.87
2019-02-11T18:16:24.510Z,5.73
2019-02-11T18:19:12.640Z,5.40
2019-02-11T18:21:44.538Z,5.57
2019-02-11T18:24:16.437Z,4.27
2019-02-11T18:27:06.533Z,6.17
2019-02-11T18:29:39.521Z,6.50
2019-02-11T18:32:11.350Z,5.40
2019-02-11T18:34:43.362Z,5.13
2019-02-11T18:37:15.791Z,5.27
2019-02-11T18:39:47.939Z,6.53
2019-02-11T18:42:31.141Z,6.13
2019-02-11T18:45:10.558Z,6.93
2019-02-11T18:47:43.526Z,9.30
2019-02-11T18:50:16.263Z,5.33
2019-02-11T18:52:53.490Z,6.23
2019-02-11T18:55:25.369Z,5.03
2019-02-11T18:57:57.260Z,7.13
2019-02-11T19:00:36.294Z,7.03
2019-02-11T19:03:08.160Z,6.83
2019-02-11T19:05:40.179Z,6.10
2019-02-11T19:08:12.054Z,8.07
2019-02-11T19:10:43.913Z,6.90
2019-02-11T19:13:15.710Z,6.60
2019-02-11T19:15:47.570Z,8.70
2019-02-11T19:18:22.136Z,8.63
2019-02-11T19:20:53.968Z,6.10
2019-02-11T19:23:25.812Z,8.60
2019-02-11T19:25:57.674Z,9.43
2019-02-11T19:28:29.574Z,8.93
2019-02-11T19:31:01.480Z,4.43
2019-02-11T19:33:34.662Z,8.53
2019-02-11T19:36:06.553Z,10.63
2019-02-11T19:38:38.437Z,7.63
2019-02-11T19:41:10.310Z,6.93
2019-02-11T19:43:42.167Z,6.80
2019-02-11T19:46:14.079Z,8.97
2019-02-11T19:48:51.520Z,6.80
2019-02-11T19:51:23.314Z,6.37
2019-02-11T19:53:55.088Z,8.77
2019-02-11T19:56:26.996Z,5.53
2019-02-11T19:58:58.783Z,6.50
2019-02-11T20:01:30.671Z,8.43
2019-02-11T20:04:09.686Z,8.23
2019-02-11T20:06:41.547Z,6.83
2019-02-11T20:09:32.803Z,5.40
2019-02-11T20:12:15.713Z,5.63
2019-02-11T20:14:47.380Z,4.20
2019-02-11T20:17:19.248Z,8.90
2019-02-11T20:19:51.154Z,5.90
2019-02-11T20:22:28.919Z,6.03
2019-02-11T20:25:02.182Z,5.43
2019-02-11T20:27:34.379Z,7.53
2019-02-11T20:30:12.764Z,5.77
2019-02-11T20:32:44.637Z,6.40
2019-02-11T20:35:16.504Z,5.93
2019-02-11T20:37:48.416Z,7.13
2019-02-11T20:40:21.677Z,8.73
2019-02-11T20:42:53.469Z,6.63
2019-02-11T20:45:26.623Z,6.87
2019-02-11T20:47:58.514Z,5.67
2019-02-11T20:50:30.305Z,7.57
2019-02-11T20:53:02.139Z,6.83
2019-02-11T20:55:35.304Z,6.13
2019-02-11T20:58:07.195Z,8.37
2019-02-11T21:00:40.392Z,6.60
2019-02-11T21:03:12.294Z,4.60
2019-02-11T21:05:44.282Z,4.63
2019-02-11T21:08:16.171Z,7.97
2019-02-11T21:10:48.039Z,5.87
2019-02-11T21:13:19.938Z,9.03
2019-02-11T21:15:51.792Z,7.37
2019-02-11T21:18:23.570Z,6.70
2019-02-11T21:20:56.766Z,6.20
2019-02-11T21:23:28.705Z,7.73
2019-02-11T21:26:00.530Z,5.83
2019-02-11T21:28:32.450Z,5.33
2019-02-11T21:31:04.318Z,7.23
2019-02-11T21:33:36.241Z,6.13
2019-02-11T21:36:08.350Z,5.50
2019-02-11T21:38:40.208Z,5.73
2019-02-11T21:41:12.051Z,8.57
2019-02-11T21:43:43.927Z,8.23
2019-02-11T21:46:32.982Z,8.53
2019-02-11T21:49:04.887Z,8.30
2019-02-11T21:51:36.724Z,6.33
2019-02-11T21:54:08.637Z,5.50
2019-02-11T21:56:40.476Z,8.30
2019-02-11T21:59:12.372Z,9.17
2019-02-11T22:01:44.279Z,6.43
2019-02-11T22:04:16.151Z,7.27
2019-02-11T22:06:49.434Z,7.97
2019-02-11T22:09:21.307Z,7.30
2019-02-11T22:11:53.182Z,6.83
2019-02-11T22:14:24.982Z,9.13
2019-02-11T22:16:56.865Z,6.33
2019-02-11T22:19:28.751Z,10.00
2019-02-11T22:22:00.648Z,7.10
2019-02-11T22:24:32.506Z,5.93
2019-02-11T22:27:04.313Z,7.47
2019-02-11T22:29:36.157Z,6.87
2019-02-11T22:32:07.993Z,8.27
2019-02-11T22:34:39.932Z,8.70
2019-02-11T22:37:11.844Z,7.20
2019-02-11T22:39:43.785Z,9.47
2019-02-11T22:42:15.683Z,5.97
2019-02-11T22:44:47.613Z,8.33
2019-02-11T22:47:19.457Z,6.27
2019-02-11T22:49:52.219Z,6.10
2019-02-11T22:52:24.153Z,5.37
2019-02-11T22:54:55.968Z,6.47
2019-02-11T22:57:27.890Z,12.03
2019-02-11T22:59:59.795Z,8.63
2019-02-11T23:02:31.807Z,7.83
2019-02-11T23:05:04.146Z,9.23
2019-02-11T23:07:37.053Z,7.20
2019-02-11T23:10:09.062Z,5.47
2019-02-11T23:12:40.957Z,9.33
2019-02-11T23:15:12.864Z,6.67
2019-02-11T23:17:44.765Z,8.63
2019-02-11T23:20:16.706Z,9.57
2019-02-11T23:22:48.596Z,5.63
2019-02-11T23:25:20.435Z,7.57
2019-02-11T23:27:53.318Z,6.97
2019-02-11T23:30:25.141Z,4.97
2019-02-11T23:32:56.970Z,9.53
2019-02-11T23:35:28.821Z,7.20
2019-02-11T23:38:00.731Z,9.67
2019-02-11T23:40:32.683Z,5.10
2019-02-11T23:43:05.970Z,7.60
2019-02-11T23:45:37.938Z,5.60
2019-02-11T23:48:17.567Z,6.77
2019-02-11T23:50:49.467Z,6.27
2019-02-11T23:53:21.291Z,7.53
2019-02-11T23:55:53.173Z,8.30
2019-02-11T23:58:25.105Z,7.57
